Time;durP1;ratioP1;P1;durP2;ratioP2;P2;SDS_P1;SDS_P2;PMS_P1;PMS_P2;Temp;Humidity;BMP_temperature;BMP_pressure;BME280_temperature;BME280_humidity;BME280_pressure;Samples;Min_cycle;Max_cycle;Signal;HPM_P1;HPM_P2
2022/06/18 00:03:29;;;;;;;6.13;4.57;;;;;;;;;;10279913;28;20069;-58
2022/06/18 00:08:30;;;;;;;7.68;3.85;;;;;;;;;;10282626;28;20084;-59
2022/06/18 00:13:42;;;;;;;4.18;3.78;;;;;;;;;;10279647;28;20083;-59
2022/06/18 00:18:41;;;;;;;5.50;3.42;;;;;;;;;;10282116;28;20072;-59
2022/06/18 00:23:40;;;;;;;5.38;3.47;;;;;;;;;;10282136;28;20092;-58
2022/06/18 00:28:40;;;;;;;7.05;3.13;;;;;;;;;;10281679;28;20080;-58
2022/06/18 00:33:40;;;;;;;4.30;3.65;;;;;;;;;;10278912;28;20092;-60
2022/06/18 00:38:41;;;;;;;5.10;3.15;;;;;;;;;;10281406;28;20080;-59
2022/06/18 00:43:42;;;;;;;8.13;3.53;;;;;;;;;;10276729;28;20056;-60
2022/06/18 00:48:44;;;;;;;4.30;3.58;;;;;;;;;;10280075;28;20068;-59
2022/06/18 00:53:46;;;;;;;3.95;3.35;;;;;;;;;;10281068;28;20068;-59
2022/06/18 00:59:08;;;;;;;3.95;3.65;;;;;;;;;;10284684;28;20098;-59
2022/06/18 01:04:20;;;;;;;5.18;3.22;;;;;;;;;;10276909;28;20079;-59
2022/06/18 01:09:19;;;;;;;6.60;3.60;;;;;;;;;;10277121;28;20076;-60
2022/06/18 01:14:19;;;;;;;4.40;3.30;;;;;;;;;;10279573;28;20052;-59
2022/06/18 01:19:20;;;;;;;6.13;2.97;;;;;;;;;;10279478;28;20345;-58
2022/06/18 01:24:21;;;;;;;6.32;3.30;;;;;;;;;;10275895;28;20056;-59
2022/06/18 01:29:20;;;;;;;3.95;3.65;;;;;;;;;;10278279;28;20049;-60
2022/06/18 01:34:20;;;;;;;4.03;3.13;;;;;;;;;;10279694;28;20079;-58
2022/06/18 01:39:27;;;;;;;7.97;3.60;;;;;;;;;;10278055;28;20542;-59
2022/06/18 01:44:29;;;;;;;4.75;3.58;;;;;;;;;;10284060;28;20064;-59
2022/06/18 01:49:32;;;;;;;3.67;3.17;;;;;;;;;;10284096;28;20144;-58
2022/06/18 01:54:35;;;;;;;6.03;3.58;;;;;;;;;;10275684;28;20045;-58
2022/06/18 01:59:36;;;;;;;4.45;3.13;;;;;;;;;;10284075;28;20107;-58
2022/06/18 02:04:38;;;;;;;8.30;3.33;;;;;;;;;;10274651;28;20079;-58
2022/06/18 02:09:39;;;;;;;5.88;3.10;;;;;;;;;;10275277;28;20049;-58
2022/06/18 02:14:39;;;;;;;4.15;3.38;;;;;;;;;;10275956;28;20068;-58
2022/06/18 02:19:38;;;;;;;7.45;3.83;;;;;;;;;;10283172;28;20116;-59
2022/06/18 02:24:38;;;;;;;4.93;2.92;;;;;;;;;;10285858;28;20345;-58
2022/06/18 02:29:36;;;;;;;4.03;3.22;;;;;;;;;;10291224;28;20049;-59
2022/06/18 02:34:36;;;;;;;4.45;3.40;;;;;;;;;;10291700;28;20045;-59
2022/06/18 02:39:36;;;;;;;3.75;2.97;;;;;;;;;;10284942;28;20076;-60
2022/06/18 02:44:36;;;;;;;5.00;3.30;;;;;;;;;;10290708;28;20041;-59
2022/06/18 02:49:35;;;;;;;4.60;3.53;;;;;;;;;;10282513;28;20084;-59
2022/06/18 02:54:33;;;;;;;5.22;3.22;;;;;;;;;;10285249;28;20084;-59
2022/06/18 02:59:32;;;;;;;5.68;2.58;;;;;;;;;;10290085;28;20395;-59
2022/06/18 03:04:32;;;;;;;3.42;3.13;;;;;;;;;;10281396;28;20045;-59
2022/06/18 03:09:30;;;;;;;4.53;3.47;;;;;;;;;;10281174;28;20068;-59
2022/06/18 03:14:28;;;;;;;5.95;3.30;;;;;;;;;;10281116;28;20082;-59
2022/06/18 03:19:31;;;;;;;4.22;3.47;;;;;;;;;;10280731;28;20072;-58
2022/06/18 03:24:31;;;;;;;3.70;3.20;;;;;;;;;;10279395;28;20061;-59
2022/06/18 03:29:30;;;;;;;5.35;3.45;;;;;;;;;;10278839;28;20049;-59
2022/06/18 03:34:29;;;;;;;6.50;3.80;;;;;;;;;;10279837;28;20057;-59
2022/06/18 03:39:27;;;;;;;6.43;2.85;;;;;;;;;;10282789;28;20084;-59
2022/06/18 03:44:27;;;;;;;4.50;3.00;;;;;;;;;;10288428;28;20049;-58
2022/06/18 03:49:30;;;;;;;3.47;2.92;;;;;;;;;;10287482;28;20092;-59
2022/06/18 03:54:31;;;;;;;6.88;3.45;;;;;;;;;;10289414;28;20068;-59
2022/06/18 03:59:30;;;;;;;4.63;3.00;;;;;;;;;;10283813;28;20084;-59
2022/06/18 04:04:29;;;;;;;7.03;3.42;;;;;;;;;;10278454;28;20411;-59
2022/06/18 04:09:27;;;;;;;6.95;3.50;;;;;;;;;;10285798;28;20052;-59
2022/06/18 04:14:26;;;;;;;4.32;3.08;;;;;;;;;;10277998;28;20422;-59
2022/06/18 04:19:44;;;;;;;5.30;3.10;;;;;;;;;;10281223;28;20095;-60
2022/06/18 04:24:45;;;;;;;5.13;2.88;;;;;;;;;;10279667;28;20462;-59
2022/06/18 04:29:43;;;;;;;3.58;3.03;;;;;;;;;;10291688;28;20502;-60
2022/06/18 04:34:45;;;;;;;3.65;3.03;;;;;;;;;;10278503;28;20079;-59
2022/06/18 04:39:53;;;;;;;3.80;3.20;;;;;;;;;;10285604;28;20476;-58
2022/06/18 04:44:54;;;;;;;9.32;3.95;;;;;;;;;;10301780;28;20074;-59
2022/06/18 04:50:02;;;;;;;3.78;3.22;;;;;;;;;;10289992;28;20083;-59
2022/06/18 04:55:02;;;;;;;4.65;3.88;;;;;;;;;;10285917;28;20525;-59
2022/06/18 05:00:03;;;;;;;4.53;3.67;;;;;;;;;;10285015;28;20092;-59
2022/06/18 05:05:13;;;;;;;4.38;3.67;;;;;;;;;;10276367;28;20061;-59
2022/06/18 05:10:43;;;;;;;6.00;4.13;;;;;;;;;;10275392;28;20057;-57
2022/06/18 05:15:56;;;;;;;5.90;4.72;;;;;;;;;;10278224;28;20064;-59
2022/06/18 05:20:57;;;;;;;4.50;3.78;;;;;;;;;;10277128;28;20095;-58
2022/06/18 05:25:58;;;;;;;8.40;5.53;;;;;;;;;;10278194;28;20499;-57
2022/06/18 05:30:57;;;;;;;4.95;4.32;;;;;;;;;;10277523;28;20052;-59
2022/06/18 05:36:00;;;;;;;5.13;3.60;;;;;;;;;;10277431;28;20080;-59
2022/06/18 05:41:00;;;;;;;5.95;3.60;;;;;;;;;;10278294;28;20081;-58
2022/06/18 05:45:59;;;;;;;11.30;7.95;;;;;;;;;;10278244;28;20056;-59
2022/06/18 05:50:58;;;;;;;7.40;3.45;;;;;;;;;;10295917;28;20094;-59
2022/06/18 05:55:58;;;;;;;3.92;3.42;;;;;;;;;;10281829;28;20095;-58
2022/06/18 06:01:02;;;;;;;4.88;2.97;;;;;;;;;;10301074;28;20443;-60
2022/06/18 06:06:01;;;;;;;4.05;3.13;;;;;;;;;;10294021;28;20533;-59
2022/06/18 06:16:20;;;;;;;5.50;2.97;;;;;;;;;;10289449;28;20502;-60
2022/06/18 06:21:18;;;;;;;5.65;3.22;;;;;;;;;;10309847;28;20076;-60
2022/06/18 06:26:21;;;;;;;4.93;3.10;;;;;;;;;;10283220;28;20037;-60
2022/06/18 06:31:20;;;;;;;4.78;3.40;;;;;;;;;;10277425;28;20061;-60
2022/06/18 06:36:18;;;;;;;3.83;3.15;;;;;;;;;;10277373;28;20514;-60
2022/06/18 06:41:18;;;;;;;5.43;3.90;;;;;;;;;;10276793;28;20065;-60
2022/06/18 06:46:19;;;;;;;6.32;3.60;;;;;;;;;;10291002;28;20069;-59
2022/06/18 06:51:18;;;;;;;8.05;3.40;;;;;;;;;;10304925;28;20068;-59
2022/06/18 07:01:35;;;;;;;6.60;4.38;;;;;;;;;;10292205;28;20068;-59
2022/06/18 07:06:35;;;;;;;3.58;3.25;;;;;;;;;;10300985;28;20067;-59
2022/06/18 07:11:35;;;;;;;8.35;3.92;;;;;;;;;;10292328;28;20091;-59
2022/06/18 07:16:34;;;;;;;7.05;4.38;;;;;;;;;;10282508;28;20079;-59
2022/06/18 07:21:34;;;;;;;4.88;4.15;;;;;;;;;;10284452;28;20087;-60
2022/06/18 07:26:32;;;;;;;2.97;2.67;;;;;;;;;;10287529;28;20501;-59
2022/06/18 07:31:31;;;;;;;3.08;2.78;;;;;;;;;;10290718;28;20060;-60
2022/06/18 07:36:32;;;;;;;6.05;3.80;;;;;;;;;;10277189;28;20072;-59
2022/06/18 07:41:32;;;;;;;3.97;3.58;;;;;;;;;;10279158;28;20075;-59
2022/06/18 07:46:30;;;;;;;7.05;3.70;;;;;;;;;;10288621;28;20064;-60
2022/06/18 07:51:29;;;;;;;6.75;3.47;;;;;;;;;;10286769;28;20069;-58
2022/06/18 07:56:28;;;;;;;5.55;2.92;;;;;;;;;;10280807;28;20041;-59
2022/06/18 08:01:27;;;;;;;7.70;3.58;;;;;;;;;;10284302;28;20072;-59
2022/06/18 08:06:25;;;;;;;9.07;3.53;;;;;;;;;;10293695;28;20430;-60
2022/06/18 08:11:25;;;;;;;5.70;4.63;;;;;;;;;;10280948;28;20414;-60
2022/06/18 08:16:25;;;;;;;3.30;2.83;;;;;;;;;;10284302;28;20074;-60
2022/06/18 08:21:25;;;;;;;5.95;4.38;;;;;;;;;;10280426;28;20080;-60
2022/06/18 08:26:24;;;;;;;12.45;8.43;;;;;;;;;;10274456;28;20087;-61
2022/06/18 08:31:23;;;;;;;4.93;3.47;;;;;;;;;;10283704;28;20083;-60
2022/06/18 08:36:23;;;;;;;4.53;2.33;;;;;;;;;;10294137;28;20044;-59
2022/06/18 08:41:32;;;;;;;4.07;2.50;;;;;;;;;;10281418;28;20075;-59
2022/06/18 08:46:34;;;;;;;3.50;3.20;;;;;;;;;;10285356;28;20481;-59
2022/06/18 08:51:38;;;;;;;9.15;4.28;;;;;;;;;;10280662;28;20144;-60
2022/06/18 08:56:39;;;;;;;3.25;2.95;;;;;;;;;;10276205;28;20071;-61
2022/06/18 09:01:40;;;;;;;6.63;3.22;;;;;;;;;;10284077;28;20076;-60
2022/06/18 09:06:52;;;;;;;6.22;2.67;;;;;;;;;;10275843;28;20078;-61
2022/06/18 09:11:56;;;;;;;3.75;3.05;;;;;;;;;;10271551;28;20072;-61
2022/06/18 09:16:57;;;;;;;5.47;2.40;;;;;;;;;;10276785;28;20075;-60
2022/06/18 09:21:57;;;;;;;5.05;1.88;;;;;;;;;;10280470;28;20080;-61
2022/06/18 09:27:01;;;;;;;4.53;2.97;;;;;;;;;;10287177;28;20083;-61
2022/06/18 09:32:01;;;;;;;3.42;2.97;;;;;;;;;;10298975;28;20067;-60
2022/06/18 09:37:04;;;;;;;4.60;2.60;;;;;;;;;;10302107;28;20048;-60
2022/06/18 09:42:05;;;;;;;4.82;2.92;;;;;;;;;;10292151;28;20353;-60
2022/06/18 09:47:07;;;;;;;3.95;2.55;;;;;;;;;;10289623;28;20073;-60
2022/06/18 09:52:11;;;;;;;6.43;2.58;;;;;;;;;;10284237;28;20072;-61
2022/06/18 09:57:11;;;;;;;4.63;2.97;;;;;;;;;;10286871;28;20072;-60
2022/06/18 10:02:17;;;;;;;4.53;2.35;;;;;;;;;;10295502;28;20085;-60
2022/06/18 10:07:18;;;;;;;3.08;2.60;;;;;;;;;;10282076;28;20499;-60
2022/06/18 10:12:19;;;;;;;3.42;2.38;;;;;;;;;;10306687;28;20091;-61
2022/06/18 10:17:22;;;;;;;4.38;2.97;;;;;;;;;;10280349;28;20045;-61
2022/06/18 10:22:25;;;;;;;5.93;2.20;;;;;;;;;;10280672;28;20493;-60
2022/06/18 10:27:26;;;;;;;5.32;2.03;;;;;;;;;;10291738;28;20083;-60
2022/06/18 10:32:30;;;;;;;2.85;1.75;;;;;;;;;;10304174;28;20076;-59
2022/06/18 10:37:33;;;;;;;4.07;2.72;;;;;;;;;;10277571;28;20069;-60
2022/06/18 10:42:57;;;;;;;3.63;1.85;;;;;;;;;;10282112;28;20537;-59
2022/06/18 10:47:55;;;;;;;7.63;2.28;;;;;;;;;;10282910;28;20072;-60
2022/06/18 10:53:02;;;;;;;8.27;2.15;;;;;;;;;;10280358;28;20065;-59
2022/06/18 10:58:07;;;;;;;4.50;2.03;;;;;;;;;;10313846;28;20044;-61
2022/06/18 11:03:17;;;;;;;4.32;1.98;;;;;;;;;;10304600;28;20529;-59
2022/06/18 11:08:21;;;;;;;3.03;2.22;;;;;;;;;;10282115;28;20049;-60
2022/06/18 11:13:21;;;;;;;3.47;1.85;;;;;;;;;;10284580;28;20513;-60
2022/06/18 11:18:20;;;;;;;5.13;2.33;;;;;;;;;;10281445;28;20107;-59
2022/06/18 11:23:46;;;;;;;4.25;1.98;;;;;;;;;;10285254;28;20091;-60
2022/06/18 11:29:10;;;;;;;2.72;2.15;;;;;;;;;;10291727;28;20083;-59
2022/06/18 11:34:17;;;;;;;3.78;1.70;;;;;;;;;;10283867;28;20068;-60
2022/06/18 11:39:26;;;;;;;2.58;2.30;;;;;;;;;;10291359;28;20093;-59
2022/06/18 11:44:27;;;;;;;5.15;2.45;;;;;;;;;;10287027;28;20517;-59
2022/06/18 11:49:28;;;;;;;3.40;2.17;;;;;;;;;;10284313;28;20079;-58
2022/06/18 11:54:33;;;;;;;3.70;2.10;;;;;;;;;;10283150;28;20076;-59
2022/06/18 11:59:37;;;;;;;2.15;1.95;;;;;;;;;;10283390;28;20474;-59
2022/06/18 12:04:37;;;;;;;4.03;2.20;;;;;;;;;;10276930;28;20080;-60
2022/06/18 12:09:38;;;;;;;2.30;1.80;;;;;;;;;;10277695;28;20068;-60
2022/06/18 12:14:38;;;;;;;3.83;1.88;;;;;;;;;;10273985;28;20081;-60
2022/06/18 12:19:46;;;;;;;3.53;2.00;;;;;;;;;;10274496;28;20079;-59
2022/06/18 12:24:51;;;;;;;8.05;2.25;;;;;;;;;;10309728;28;20087;-59
2022/06/18 12:29:55;;;;;;;2.17;1.98;;;;;;;;;;10315012;28;20056;-60
2022/06/18 12:34:58;;;;;;;3.50;2.08;;;;;;;;;;10283152;28;20041;-60
2022/06/18 12:40:02;;;;;;;4.30;2.03;;;;;;;;;;10277875;28;20072;-60
2022/06/18 12:45:07;;;;;;;3.10;2.30;;;;;;;;;;10277559;28;20342;-58
2022/06/18 12:50:11;;;;;;;4.13;2.45;;;;;;;;;;10279912;28;20081;-59
2022/06/18 12:55:16;;;;;;;2.08;1.85;;;;;;;;;;10280054;28;20200;-61
2022/06/18 13:00:17;;;;;;;4.13;2.20;;;;;;;;;;10283195;28;20090;-60
2022/06/18 13:05:21;;;;;;;4.50;2.63;;;;;;;;;;10279663;28;20083;-60
2022/06/18 13:10:25;;;;;;;4.00;1.83;;;;;;;;;;10276820;28;20099;-60
2022/06/18 13:15:28;;;;;;;2.63;2.42;;;;;;;;;;10276434;28;20055;-61
2022/06/18 13:20:30;;;;;;;1.83;1.70;;;;;;;;;;10276377;28;20064;-61
2022/06/18 13:30:57;;;;;;;4.97;2.47;;;;;;;;;;10281945;28;20073;-60
2022/06/18 13:35:59;;;;;;;3.75;1.77;;;;;;;;;;10279925;28;20069;-61
2022/06/18 13:41:01;;;;;;;5.22;1.90;;;;;;;;;;10281837;28;20072;-61
2022/06/18 13:46:04;;;;;;;2.78;1.90;;;;;;;;;;10282639;28;20081;-61
2022/06/18 13:51:02;;;;;;;7.95;2.65;;;;;;;;;;10278070;28;20079;-61
2022/06/18 13:56:17;;;;;;;4.97;2.42;;;;;;;;;;10278531;28;20053;-60
2022/06/18 14:01:22;;;;;;;4.82;2.13;;;;;;;;;;10292335;28;20138;-60
2022/06/18 14:06:21;;;;;;;4.38;2.28;;;;;;;;;;10281619;28;20073;-60
2022/06/18 14:11:31;;;;;;;5.65;5.03;;;;;;;;;;10287529;28;20075;-61
2022/06/18 14:16:32;;;;;;;3.55;1.73;;;;;;;;;;10294165;28;20068;-60
2022/06/18 14:21:30;;;;;;;2.88;2.05;;;;;;;;;;10285633;28;20537;-61
2022/06/18 14:26:40;;;;;;;3.75;2.42;;;;;;;;;;10288061;28;20068;-61
2022/06/18 14:31:41;;;;;;;3.70;1.98;;;;;;;;;;10284338;28;20065;-60
2022/06/18 14:36:41;;;;;;;3.58;2.20;;;;;;;;;;10288100;28;20061;-61
2022/06/18 14:41:41;;;;;;;4.07;2.20;;;;;;;;;;10284761;28;20072;-59
2022/06/18 14:46:48;;;;;;;3.30;1.90;;;;;;;;;;10284858;28;20144;-59
2022/06/18 14:52:04;;;;;;;6.53;2.33;;;;;;;;;;10283252;28;20491;-60
2022/06/18 14:57:21;;;;;;;3.75;2.00;;;;;;;;;;10280482;28;20091;-60
2022/06/18 15:02:24;;;;;;;3.08;1.85;;;;;;;;;;10285302;28;20485;-60
2022/06/18 15:07:28;;;;;;;6.60;2.27;;;;;;;;;;10286938;28;20536;-60
2022/06/18 15:12:28;;;;;;;3.53;2.22;;;;;;;;;;10279578;28;20122;-60
2022/06/18 15:17:39;;;;;;;3.83;2.67;;;;;;;;;;10294231;28;20083;-58
2022/06/18 15:22:56;;;;;;;5.43;2.40;;;;;;;;;;10286520;28;20080;-60
2022/06/18 15:27:56;;;;;;;2.00;1.50;;;;;;;;;;10286876;28;20478;-60
2022/06/18 15:32:57;;;;;;;8.35;3.03;;;;;;;;;;10288077;28;20072;-60
2022/06/18 15:37:57;;;;;;;3.15;2.05;;;;;;;;;;10283628;28;20084;-60
2022/06/18 15:42:57;;;;;;;2.38;1.70;;;;;;;;;;10278784;28;20187;-60
2022/06/18 15:47:58;;;;;;;3.55;1.83;;;;;;;;;;10280094;28;20068;-60
2022/06/18 15:52:57;;;;;;;3.38;2.58;;;;;;;;;;10277033;28;20526;-60
2022/06/18 15:57:56;;;;;;;6.72;1.92;;;;;;;;;;10280015;28;20171;-61
2022/06/18 16:02:54;;;;;;;4.38;2.60;;;;;;;;;;10281721;28;20068;-61
2022/06/18 16:07:55;;;;;;;6.03;3.72;;;;;;;;;;10284448;28;20068;-61
2022/06/18 16:12:59;;;;;;;4.20;2.85;;;;;;;;;;10279707;28;20528;-59
2022/06/18 16:18:20;;;;;;;5.60;3.37;;;;;;;;;;10281173;28;20517;-61
2022/06/18 16:23:20;;;;;;;5.07;3.58;;;;;;;;;;10285511;28;20347;-60
2022/06/18 16:28:19;;;;;;;8.50;4.00;;;;;;;;;;10286419;28;20084;-59
2022/06/18 16:33:22;;;;;;;7.20;3.13;;;;;;;;;;10285582;28;20088;-60
2022/06/18 16:38:38;;;;;;;6.70;3.40;;;;;;;;;;10287295;28;20529;-61
2022/06/18 16:43:38;;;;;;;6.68;2.72;;;;;;;;;;10273865;28;20076;-60
2022/06/18 16:48:39;;;;;;;8.05;3.20;;;;;;;;;;10276422;28;20183;-59
2022/06/18 16:53:43;;;;;;;3.70;2.78;;;;;;;;;;10277485;28;20076;-58
2022/06/18 16:58:43;;;;;;;5.80;3.70;;;;;;;;;;10279857;28;20079;-59
2022/06/18 17:03:41;;;;;;;9.35;2.53;;;;;;;;;;10273424;28;20502;-59
2022/06/18 17:08:41;;;;;;;5.05;2.33;;;;;;;;;;10277729;28;20060;-62
2022/06/18 17:13:39;;;;;;;4.97;2.08;;;;;;;;;;10279282;28;20092;-60
2022/06/18 17:18:39;;;;;;;2.30;1.83;;;;;;;;;;10280151;28;20076;-59
2022/06/18 17:31:07;;;;;;;13.80;3.33;;;;;;;;;;10277323;28;20085;-60
2022/06/18 17:34:16;;;;;;;3.58;2.20;;;;;;;;;;10286407;28;20140;-59
2022/06/18 17:39:15;;;;;;;3.88;1.83;;;;;;;;;;10279182;28;20067;-60
2022/06/18 17:44:13;;;;;;;7.63;2.28;;;;;;;;;;10279626;28;20077;-60
2022/06/18 17:49:11;;;;;;;4.10;1.90;;;;;;;;;;10287636;28;20075;-60
2022/06/18 17:54:12;;;;;;;4.22;1.65;;;;;;;;;;10284174;28;20529;-60
2022/06/18 17:59:13;;;;;;;5.30;2.95;;;;;;;;;;10287451;28;20064;-60
2022/06/18 18:04:13;;;;;;;4.47;2.00;;;;;;;;;;10284512;28;20069;-59
2022/06/18 18:09:13;;;;;;;3.05;1.83;;;;;;;;;;10284499;28;20080;-60
2022/06/18 18:14:14;;;;;;;4.35;3.03;;;;;;;;;;10286831;28;20079;-60
2022/06/18 18:19:12;;;;;;;6.80;3.05;;;;;;;;;;10284036;28;20089;-60
2022/06/18 18:24:10;;;;;;;6.25;2.47;;;;;;;;;;10283773;28;20467;-60
2022/06/18 18:29:10;;;;;;;4.25;2.10;;;;;;;;;;10286496;28;20486;-60
2022/06/18 18:34:09;;;;;;;4.60;2.47;;;;;;;;;;10286493;28;20083;-60
2022/06/18 18:39:08;;;;;;;3.33;2.63;;;;;;;;;;10283075;28;20083;-60
2022/06/18 18:44:07;;;;;;;3.53;2.55;;;;;;;;;;10283188;28;20080;-60
2022/06/18 18:49:07;;;;;;;3.63;1.55;;;;;;;;;;10285766;28;20045;-60
2022/06/18 18:54:05;;;;;;;2.70;1.30;;;;;;;;;;10282690;28;20162;-60
2022/06/18 18:59:06;;;;;;;3.38;1.50;;;;;;;;;;10281824;28;20071;-60
2022/06/18 19:04:05;;;;;;;3.05;2.22;;;;;;;;;;10282099;28;20073;-60
2022/06/18 19:09:05;;;;;;;5.35;2.17;;;;;;;;;;10281364;28;20194;-60
2022/06/18 19:14:03;;;;;;;4.30;2.53;;;;;;;;;;10285056;28;20069;-60
2022/06/18 19:19:02;;;;;;;9.15;2.63;;;;;;;;;;10284566;28;20467;-60
2022/06/18 19:24:01;;;;;;;6.85;2.33;;;;;;;;;;10281480;28;20084;-61
2022/06/18 19:29:01;;;;;;;6.25;2.63;;;;;;;;;;10284011;28;20068;-60
2022/06/18 19:33:59;;;;;;;4.50;2.45;;;;;;;;;;10280254;28;20073;-60
2022/06/18 19:38:58;;;;;;;6.90;3.95;;;;;;;;;;10280330;28;20107;-60
2022/06/18 19:43:56;;;;;;;6.97;3.70;;;;;;;;;;10283584;28;20187;-60
2022/06/18 19:48:56;;;;;;;7.15;4.38;;;;;;;;;;10279225;28;20073;-58
2022/06/18 19:53:54;;;;;;;4.60;2.60;;;;;;;;;;10280411;28;20072;-59
2022/06/18 19:58:53;;;;;;;5.38;3.33;;;;;;;;;;10283888;28;20068;-59
2022/06/18 20:03:54;;;;;;;3.63;2.63;;;;;;;;;;10277342;28;20083;-59
2022/06/18 20:08:54;;;;;;;4.93;3.20;;;;;;;;;;10288287;28;20079;-59
2022/06/18 20:13:52;;;;;;;5.97;3.33;;;;;;;;;;10288382;28;20086;-58
2022/06/18 20:18:51;;;;;;;3.65;2.20;;;;;;;;;;10289240;28;20501;-58
2022/06/18 20:23:49;;;;;;;5.43;2.08;;;;;;;;;;10290137;28;20088;-58
2022/06/18 20:28:49;;;;;;;4.70;2.20;;;;;;;;;;10277505;28;20719;-59
2022/06/18 20:33:47;;;;;;;4.60;2.17;;;;;;;;;;10276611;28;20076;-60
2022/06/18 20:38:48;;;;;;;5.28;2.33;;;;;;;;;;10276404;28;20072;-59
2022/06/18 20:43:50;;;;;;;3.45;2.53;;;;;;;;;;10293434;28;20084;-59
2022/06/18 20:48:51;;;;;;;5.05;2.75;;;;;;;;;;10293636;28;20076;-59
2022/06/18 20:53:50;;;;;;;4.53;2.75;;;;;;;;;;10280413;28;20079;-59
2022/06/18 20:58:48;;;;;;;2.65;2.28;;;;;;;;;;10278533;28;20490;-60
2022/06/18 21:03:48;;;;;;;3.50;2.63;;;;;;;;;;10279114;28;20521;-59
2022/06/18 21:08:48;;;;;;;6.32;2.80;;;;;;;;;;10282683;28;20076;-59
2022/06/18 21:13:46;;;;;;;6.97;2.72;;;;;;;;;;10278437;28;20478;-59
2022/06/18 21:18:44;;;;;;;6.57;2.20;;;;;;;;;;10273656;28;20069;-59
2022/06/18 21:23:43;;;;;;;6.05;2.50;;;;;;;;;;10278459;28;20083;-60
2022/06/18 21:28:42;;;;;;;4.25;2.38;;;;;;;;;;10280382;28;20095;-59
2022/06/18 21:38:56;;;;;;;7.75;3.53;;;;;;;;;;10284216;28;20045;-59
2022/06/18 21:43:56;;;;;;;4.13;2.28;;;;;;;;;;10279232;28;20459;-59
2022/06/18 21:48:54;;;;;;;3.67;2.75;;;;;;;;;;10289500;28;20045;-59
2022/06/18 21:53:53;;;;;;;3.65;2.58;;;;;;;;;;10276864;28;20064;-59
2022/06/18 21:58:52;;;;;;;6.82;2.60;;;;;;;;;;10276973;28;20045;-59
2022/06/18 22:03:52;;;;;;;4.82;2.50;;;;;;;;;;10279402;28;20056;-59
2022/06/18 22:08:52;;;;;;;2.72;2.50;;;;;;;;;;10278975;28;20073;-59
2022/06/18 22:19:09;;;;;;;3.20;2.50;;;;;;;;;;10283498;28;20083;-63
2022/06/18 22:24:07;;;;;;;6.03;2.42;;;;;;;;;;10278914;28;20096;-63
2022/06/18 22:29:06;;;;;;;4.68;3.08;;;;;;;;;;10276040;28;20049;-63
2022/06/18 22:34:04;;;;;;;3.13;2.45;;;;;;;;;;10284369;28;20069;-64
2022/06/18 22:39:04;;;;;;;3.67;2.58;;;;;;;;;;10288558;28;20490;-64
2022/06/18 22:44:04;;;;;;;6.55;2.75;;;;;;;;;;10282461;28;20044;-64
2022/06/18 22:49:04;;;;;;;3.33;2.58;;;;;;;;;;10282851;28;20080;-64
2022/06/18 22:54:04;;;;;;;6.30;2.65;;;;;;;;;;10282511;28;20060;-64
2022/06/18 22:59:02;;;;;;;3.90;2.33;;;;;;;;;;10285439;28;20077;-63
2022/06/18 23:04:01;;;;;;;5.35;2.70;;;;;;;;;;10281928;28;20049;-63
2022/06/18 23:09:02;;;;;;;3.25;2.80;;;;;;;;;;10285090;28;20080;-63
2022/06/18 23:14:03;;;;;;;4.03;2.20;;;;;;;;;;10281375;28;20076;-64
2022/06/18 23:19:02;;;;;;;4.50;2.13;;;;;;;;;;10284552;28;20040;-64
2022/06/18 23:24:00;;;;;;;3.28;2.30;;;;;;;;;;10281946;28;20053;-62
2022/06/18 23:29:03;;;;;;;3.53;2.35;;;;;;;;;;10284180;28;20262;-63
2022/06/18 23:34:03;;;;;;;7.75;2.85;;;;;;;;;;10283519;28;20100;-63
2022/06/18 23:39:03;;;;;;;5.72;2.97;;;;;;;;;;10280645;28;20068;-63
2022/06/18 23:44:04;;;;;;;3.10;2.78;;;;;;;;;;10280513;28;20510;-63
2022/06/18 23:49:06;;;;;;;3.42;2.47;;;;;;;;;;10282657;28;20068;-63
2022/06/18 23:54:05;;;;;;;3.75;2.50;;;;;;;;;;10283034;28;20072;-63
2022/06/18 23:59:05;;;;;;;4.15;2.88;;;;;;;;;;10280320;28;20430;-63
